Latest Weather Observations for Tewantin

IDQ60801

Issued at 2:42 pm EST Sunday 29 November 2020 (issued every 10 minutes, with the page automatically refreshed every 10 minutes)

About weather observations | Map of weather stations | Latest weather observations for QLD | Other Formats
Station Details ID: 040908 Name: TEWANTIN RSL PARK Lat: -26.39 Lon: 153.04 Height: 6.4 m
Data from the previous 72 hours. | See also: Recent months at Tewantin
Date/Time
EST
Temp
°C
App
Temp
°C
Dew
Point
°C
Rel
Hum
%
Delta-T
°C
Wind Press
QNH
hPa
Press
MSL
hPa
Rain since
9am
mm
Dir  Spd
km/h
Gust
km/h
Spd
kts
Gust
kts
29/02:30pm 27.7 27.1 20.5 65 4.7 NNE 24 43 13 23 1009.7 1009.7 0.0
29/02:00pm 27.4 26.3 21.0 68 4.2 NNE 28 43 15 23 1010.3 1010.3 0.0
29/01:30pm 27.4 26.0 21.2 69 4.1 NNE 30 44 16 24 1010.6 1010.6 0.0
29/01:00pm 28.0 28.3 21.5 67 4.3 NNE 22 35 12 19 1011.1 1011.1 0.0
29/12:30pm 27.9 28.2 20.7 65 4.8 NNE 20 33 11 18 1011.6 1011.6 0.0
29/12:00pm 28.1 28.5 20.9 65 4.8 NNE 20 33 11 18 1012.1 1012.1 0.0
29/11:30am 28.8 30.8 21.6 65 4.8 NE 13 24 7 13 1012.6 1012.6 0.0
29/11:00am 29.5 30.1 19.5 55 6.5 N 15 22 8 12 1013.1 1013.1 0.0
29/10:30am 29.0 29.8 19.0 54 6.5 N 13 20 7 11 1013.7 1013.7 0.0
29/10:00am 27.7 28.0 18.7 58 5.8 N 15 24 8 13 1014.1 1014.1 0.0
29/09:30am 26.8 26.3 17.8 57 5.7 N 17 24 9 13 1014.4 1014.4 0.0
29/09:00am 25.9 25.7 17.5 59 5.3 NNW 15 22 8 12 1014.7 1014.7 0.0
29/08:30am 25.9 25.8 17.8 61 5.1 NNW 15 22 8 12 1015.0 1015.0 0.0
29/08:00am 25.0 25.4 18.2 66 4.3 NNW 13 22 7 12 1015.1 1015.1 0.0
29/07:30am 24.0 24.7 18.9 73 3.2 NNW 13 20 7 11 1015.1 1015.1 0.0
29/07:00am 22.8 23.9 18.1 75 2.9 NNW 9 13 5 7 1015.0 1015.0 0.0
29/06:30am 21.8 22.9 18.0 79 2.4 NW 9 15 5 8 1015.0 1015.0 0.0
29/06:00am 20.2 21.4 17.4 84 1.7 NW 7 13 4 7 1014.5 1014.5 0.0
29/05:30am 18.8 19.8 16.8 88 1.2 NW 7 11 4 6 1014.5 1014.5 0.0
29/05:00am 18.1 18.9 16.3 89 1.1 NW 7 9 4 5 1014.3 1014.3 0.0
29/04:30am 18.2 19.1 16.5 90 1.0 NW 7 11 4 6 1014.1 1014.1 0.0
29/04:00am 18.1 19.1 16.4 90 1.0 WNW 6 9 3 5 1013.8 1013.8 0.0
29/03:30am 18.3 19.2 16.5 89 1.1 NW 7 11 4 6 1013.7 1013.7 0.0
29/03:00am 18.5 19.4 16.7 89 1.1 WNW 7 9 4 5 1013.7 1013.7 0.0
29/02:30am 18.9 19.9 16.9 88 1.2 NW 7 9 4 5 1013.8 1013.8 0.0
29/02:00am 19.1 19.7 16.7 86 1.4 NW 9 11 5 6 1013.9 1013.9 0.0
29/01:30am 19.2 20.1 16.6 85 1.6 NW 7 9 4 5 1014.3 1014.3 0.0
29/01:00am 19.4 20.5 16.6 84 1.7 NW 6 9 3 5 1014.5 1014.5 0.0
29/12:30am 19.7 20.8 16.7 83 1.8 NW 6 9 3 5 1014.9 1014.9 0.0
29/12:00am 19.6 20.6 16.8 84 1.7 NW 7 11 4 6 1015.2 1015.2 0.0
 
Date/Time
EST
Temp
°C
App
Temp
°C
Dew
Point
°C
Rel
Hum
%
Delta-T
°C
Wind Press
QNH
hPa
Press
MSL
hPa
Rain since
9am
mm
Dir  Spd
km/h
Gust
km/h
Spd
kts
Gust
kts
28/11:30pm 19.6 20.7 16.6 83 1.8 WNW 6 7 3 4 1015.5 1015.5 0.0
28/11:00pm 19.6 21.5 16.6 83 1.8 WNW 2 6 1 3 1015.7 1015.7 0.0
28/10:30pm 20.0 21.5 16.6 81 2.1 WNW 4 7 2 4 1015.7 1015.7 0.0
28/10:00pm 20.8 21.9 17.0 79 2.3 WNW 7 7 4 4 1015.6 1015.6 0.0
28/09:30pm 21.3 22.6 17.1 77 2.6 WNW 6 9 3 5 1015.6 1015.6 0.0
28/09:00pm 22.5 23.6 18.1 76 2.7 NNW 9 13 5 7 1015.4 1015.4 0.0
28/08:30pm 22.7 23.3 17.8 74 3.0 N 11 17 6 9 1015.4 1015.4 0.0
28/08:00pm 23.0 23.5 18.3 75 2.9 N 13 17 7 9 1015.4 1015.4 0.0
28/07:30pm 22.9 23.5 17.6 72 3.3 N 11 15 6 8 1015.2 1015.2 0.0
28/07:00pm 23.3 24.2 18.4 74 3.1 N 11 15 6 8 1015.1 1015.1 0.0
28/06:30pm 23.5 23.8 17.9 71 3.5 N 13 19 7 10 1014.8 1014.8 0.0
28/06:00pm 24.1 23.7 18.1 69 3.8 NNE 17 22 9 12 1014.4 1014.4 0.0
28/05:30pm 24.6 24.9 18.8 70 3.7 N 15 24 8 13 1014.4 1014.4 0.0
28/05:00pm 25.0 25.4 18.2 66 4.3 NNE 13 20 7 11 1014.3 1014.3 0.0
28/04:30pm 25.3 25.5 18.5 66 4.3 NNE 15 24 8 13 1014.3 1014.3 0.0
28/04:00pm 25.6 25.8 19.3 68 4.0 NNE 17 28 9 15 1014.4 1014.4 0.0
28/03:30pm 26.0 26.1 19.2 66 4.4 NNE 17 24 9 13 1014.4 1014.4 0.0
28/03:00pm 26.3 26.6 19.7 67 4.3 NNE 17 24 9 13 1014.6 1014.6 0.0
28/02:30pm 26.7 26.9 18.6 61 5.2 NE 15 22 8 12 1014.8 1014.8 0.0
28/02:00pm 26.8 27.0 18.6 60 5.2 NNE 15 22 8 12 1014.9 1014.9 0.0
28/01:30pm 27.3 27.7 18.9 60 5.4 NE 15 20 8 11 1015.1 1015.1 0.0
28/01:00pm 27.0 27.6 18.6 60 5.4 NE 13 20 7 11 1015.3 1015.3 0.0
28/12:30pm 27.0 28.4 19.6 64 4.8 NNE 11 19 6 10 1015.6 1015.6 0.0
28/12:00pm 26.8 27.2 18.9 62 5.1 NNE 15 22 8 12 1016.1 1016.1 0.0
28/11:30am 26.9 27.9 19.5 64 4.8 NNE 13 20 7 11 1016.5 1016.5 0.0
28/11:00am 26.0 26.7 17.9 61 5.1 NE 11 19 6 10 1016.7 1016.7 0.0
28/10:30am 26.7 27.9 18.3 60 5.3 NNE 9 17 5 9 1016.9 1016.9 0.0
28/10:00am 26.8 27.9 18.1 59 5.5 NE 9 17 5 9 1017.4 1017.4 0.0
28/09:30am 25.8 26.1 16.1 55 5.9 NE 9 15 5 8 1017.4 1017.4 0.0
28/09:00am 27.0 28.4 17.8 57 5.8 NE 7 19 4 10 1017.5 1017.5 0.0
28/08:30am 25.7 26.0 17.1 59 5.3 N 11 19 6 10 1017.7 1017.7 0.0
28/08:00am 25.9 26.7 18.1 62 4.9 E 11 15 6 8 1017.7 1017.7 0.0
28/07:30am 25.7 26.2 17.4 60 5.2 ENE 11 17 6 9 1017.7 1017.7 0.0
28/07:00am 25.2 26.3 17.9 64 4.6 ENE 9 13 5 7 1017.4 1017.4 0.0
28/06:30am 23.4 24.8 17.4 69 3.7 SW 6 7 3 4 1017.2 1017.2 0.0
28/06:00am 21.9 23.4 17.7 77 2.6 SSW 6 9 3 5 1016.8 1016.8 0.0
28/05:30am 20.7 22.8 18.1 85 1.6 SSW 4 7 2 4 1016.7 1016.7 0.0
28/05:00am 19.3 20.6 17.1 87 1.3 SSW 6 9 3 5 1016.4 1016.4 0.0
28/04:30am 19.2 20.5 17.0 87 1.3 SSW 6 9 3 5 1016.3 1016.3 0.0
28/04:00am 19.5 20.8 17.1 86 1.5 SSW 6 9 3 5 1016.2 1016.2 0.0
28/03:30am 19.6 20.8 17.4 87 1.3 SSW 7 9 4 5 1016.2 1016.2 0.0
28/03:00am 19.8 21.1 17.2 85 1.6 SW 6 7 3 4 1016.2 1016.2 0.0
28/02:30am 19.7 21.0 17.1 85 1.6 SSW 6 9 3 5 1016.1 1016.1 0.0
28/02:00am 19.6 20.9 17.0 85 1.6 SW 6 7 3 4 1016.2 1016.2 0.0
28/01:30am 19.7 20.8 17.1 85 1.6 SW 7 9 4 5 1016.6 1016.6 0.0
28/01:00am 20.1 21.5 17.3 84 1.7 SW 6 7 3 4 1017.0 1017.0 0.0
28/12:30am 20.4 21.7 17.0 81 2.1 SW 6 7 3 4 1017.3 1017.3 0.0
28/12:00am 21.0 23.5 17.2 79 2.3 CALM 0 0 0 0 1017.6 1017.6 0.0
 
Date/Time
EST
Temp
°C
App
Temp
°C
Dew
Point
°C
Rel
Hum
%
Delta-T
°C
Wind Press
QNH
hPa
Press
MSL
hPa
Rain since
9am
mm
Dir  Spd
km/h
Gust
km/h
Spd
kts
Gust
kts
27/11:30pm 21.4 23.4 17.8 80 2.2 SSE 4 7 2 4 1017.6 1017.6 0.0
27/11:00pm 21.4 24.1 17.8 80 2.2 CALM 0 0 0 0 1017.9 1017.9 0.0
27/10:30pm 21.4 23.1 18.0 81 2.1 S 6 7 3 4 1018.1 1018.1 0.0
27/10:00pm 21.5 23.0 17.7 79 2.3 SSW 6 7 3 4 1018.4 1018.4 0.0
27/09:30pm 21.6 23.3 18.0 80 2.2 S 6 7 3 4 1018.3 1018.3 0.0
27/09:00pm 21.3 23.8 17.3 78 2.4 CALM 0 0 0 0 1018.2 1018.2 0.0
27/08:30pm 22.0 23.9 17.6 76 2.7 SSE 4 6 2 3 1018.0 1018.0 0.0
27/08:00pm 22.2 24.6 17.1 73 3.1 CALM 0 0 0 0 1018.0 1018.0 0.0
27/07:30pm 22.4 24.8 16.9 71 3.4 CALM 0 4 0 2 1017.8 1017.8 0.0
27/07:00pm 22.7 23.9 16.9 70 3.5 E 6 9 3 5 1017.6 1017.6 0.0
27/06:30pm 23.2 24.3 17.0 68 3.8 ENE 7 11 4 6 1017.3 1017.3 0.0
27/06:00pm 23.8 24.1 17.1 66 4.1 E 11 15 6 8 1017.0 1017.0 0.0
27/05:30pm 24.1 24.0 16.9 64 4.4 E 13 19 7 10 1016.8 1016.8 0.0
27/05:00pm 24.3 24.3 17.1 64 4.4 ESE 13 20 7 11 1016.6 1016.6 0.0
27/04:30pm 24.7 24.4 17.4 64 4.5 E 15 24 8 13 1016.5 1016.5 0.0
27/04:00pm 25.2 25.2 17.1 60 5.0 ESE 13 22 7 12 1016.1 1016.1 0.0
27/03:30pm 25.5 25.0 16.9 59 5.3 ESE 15 22 8 12 1016.0 1016.0 0.0
27/03:00pm 25.6 25.0 17.5 61 5.1 ESE 17 24 9 13 1016.0 1016.0 0.0
27/02:30pm 25.7 26.0 17.9 62 4.9 E 13 24 7 13 1016.1 1016.1 0.0
27/02:00pm 26.2 26.2 17.3 58 5.6 ESE 13 22 7 12 1016.4 1016.4 0.0
27/01:30pm 26.5 26.0 17.8 58 5.5 ESE 17 22 9 12 1016.6 1016.6 0.0
27/01:00pm 26.5 25.7 17.0 56 5.9 ESE 17 24 9 13 1016.8 1016.8 0.0
27/12:30pm 26.4 25.8 16.6 55 6.1 ESE 15 20 8 11 1017.0 1017.0 0.0
27/12:00pm 26.7 27.0 17.8 58 5.6 ESE 13 22 7 12 1017.2 1017.2 0.0
27/11:30am 25.8 26.1 18.7 65 4.5 SE 15 26 8 14 1017.6 1017.6 0.0
27/11:00am 25.6 25.8 18.5 65 4.5 ESE 15 24 8 13 1017.7 1017.7 0.0
27/10:30am 25.6 25.4 17.5 61 5.1 E 15 24 8 13 1017.9 1017.9 0.0
27/10:00am 26.8 27.5 18.9 62 5.1 ESE 13 22 7 12 1018.0 1018.0 0.0
27/09:30am 26.2 27.0 18.1 61 5.1 ESE 11 19 6 10 1017.8 1017.8 0.0
27/09:00am 25.8 26.3 17.4 59 5.2 ESE 11 19 6 10 1017.6 1017.6 0.0
27/08:30am 25.3 26.3 17.7 62 4.8 ESE 9 17 5 9 1017.4 1017.4 0.0
27/08:00am 25.2 26.7 18.9 68 4.0 SSE 9 15 5 8 1017.2 1017.2 0.0
27/07:30am 25.3 27.3 19.2 69 3.9 ESE 7 11 4 6 1017.2 1017.2 0.0
27/07:00am 24.0 25.9 19.7 77 2.8 S 9 11 5 6 1016.8 1016.8 0.0
27/06:30am 22.4 23.8 18.6 79 2.4 S 9 15 5 8 1016.3 1016.3 0.0
27/06:00am 21.9 24.1 19.1 84 1.8 S 6 9 3 5 1015.9 1015.9 0.0
27/05:30am 20.2 22.8 18.3 89 1.2 S 2 7 1 4 1015.4 1015.4 0.0
27/05:00am 19.1 21.4 17.6 91 0.9 SSW 2 7 1 4 1015.1 1015.1 0.0
27/04:30am 19.3 21.6 17.8 91 0.9 S 2 6 1 3 1014.8 1014.8 0.0
27/04:00am 19.3 22.0 17.8 91 0.9 CALM 0 0 0 0 1014.6 1014.6 0.0
27/03:30am 19.2 21.9 17.7 91 0.9 CALM 0 0 0 0 1014.2 1014.2 0.0
27/03:00am 19.3 21.6 17.6 90 1.0 SSW 2 7 1 4 1013.8 1013.8 0.0
27/02:30am 19.6 22.3 17.7 89 1.2 CALM 0 6 0 3 1013.8 1013.8 0.0
27/02:00am 19.9 22.7 17.9 88 1.2 CALM 0 4 0 2 1013.9 1013.9 0.0
27/01:30am 20.1 23.0 18.1 88 1.2 CALM 0 0 0 0 1014.1 1014.1 0.0
27/01:00am 20.4 22.1 18.0 86 1.5 SSW 6 9 3 5 1014.5 1014.5 0.0
27/12:30am 20.7 22.4 18.1 85 1.6 SW 6 7 3 4 1014.6 1014.6 0.0
27/12:00am 21.0 22.7 18.0 83 1.9 SW 6 7 3 4 1014.8 1014.8 0.0
 
Date/Time
EST
Temp
°C
App
Temp
°C
Dew
Point
°C
Rel
Hum
%
Delta-T
°C
Wind Press
QNH
hPa
Press
MSL
hPa
Rain since
9am
mm
Dir  Spd
km/h
Gust
km/h
Spd
kts
Gust
kts
26/11:30pm 21.4 23.4 18.8 85 1.6 SSW 6 7 3 4 1015.0 1015.0 0.0
26/11:00pm 21.7 23.7 18.7 83 1.9 SSE 6 7 3 4 1015.1 1015.1 0.0
26/10:30pm 22.4 25.5 18.6 79 2.4 CALM 0 0 0 0 1015.1 1015.1 0.0
26/10:00pm 22.3 23.9 18.3 78 2.5 E 7 9 4 5 1015.0 1015.0 0.0
26/09:30pm 22.4 24.3 18.6 79 2.4 ENE 6 7 3 4 1014.8 1014.8 0.0
26/09:00pm 22.5 24.2 18.5 78 2.5 E 7 9 4 5 1014.6 1014.6 0.0
26/08:30pm 22.5 24.5 18.7 79 2.4 ENE 6 9 3 5 1014.5 1014.5 0.0
26/08:00pm 22.4 24.2 18.2 77 2.6 ENE 6 9 3 5 1014.2 1014.2 0.0
26/07:30pm 22.7 24.3 18.3 76 2.8 ENE 7 9 4 5 1014.0 1014.0 0.0
26/07:00pm 22.9 24.6 18.4 76 2.8 ENE 7 11 4 6 1013.6 1013.6 0.0
26/06:30pm 23.3 24.9 18.2 73 3.2 ENE 7 11 4 6 1013.2 1013.2 0.0
26/06:00pm 23.7 24.4 17.9 70 3.6 NE 11 15 6 8 1013.0 1013.0 0.0
26/05:30pm 24.1 24.6 18.3 70 3.7 NE 13 20 7 11 1012.8 1012.8 0.0
26/05:00pm 24.5 24.9 18.2 68 4.0 ENE 13 20 7 11 1012.5 1012.5 0.0
26/04:30pm 25.2 26.1 19.3 70 3.8 NE 13 22 7 12 1012.3 1012.3 0.0
26/04:00pm 25.5 25.8 18.7 66 4.3 ENE 15 22 8 12 1012.4 1012.4 0.0
26/03:30pm 25.9 25.8 17.8 61 5.1 NE 15 24 8 13 1012.3 1012.3 0.0
26/03:00pm 26.1 26.1 18.0 61 5.1 E 15 22 8 12 1012.4 1012.4 0.0

Other formats

Comma delimited format used in spreadsheet applications
http://www.bom.gov.au/fwo/IDQ60801/IDQ60801.94570.axf

JavaScript Object Notation format (JSON) in row-major order
http://www.bom.gov.au/fwo/IDQ60801/IDQ60801.94570.json

Data quality

Most of these data are generated automatically and are frequently updated. Quality checks on data are not normally performed. It is possible for incorrect values to appear. Refer to information at About Latest Weather Observations and please check the disclaimer before using these data.